Metar Aviation Weather Data ENHD

10°C Temp
8°C Dewpoint
% Humidity
Temperature
14 KM/H
9 MPH
8 KTS
270°
Due West

Wind Speed
Partly Cloudy
Conditions
Pressure 1033.92 (hPa) - 30.53 (in)
Visibility 6.2 (mi) - 10 (km)

Current Conditions
ENHD
Metar :ENHD 270750Z 27008KT 9999 FEW008 SCT068 10/08 Q1034
Wed 27th May 09:50 am

  Metar Aviation API Data Provided by https://www.checkwx.com/ PHP scripts by weather34.com ©2020